createdAt,value
2022-09-18T00:02:10.754Z,14.60
2022-09-18T00:05:18.928Z,13.20
2022-09-18T00:08:22.760Z,13.75
2022-09-18T00:11:31.232Z,15.25
2022-09-18T00:14:36.073Z,13.38
2022-09-18T00:17:39.825Z,15.00
2022-09-18T00:20:46.096Z,13.98
2022-09-18T00:23:54.528Z,15.38
2022-09-18T00:27:01.624Z,10.50
2022-09-18T00:30:07.658Z,14.32
2022-09-18T00:33:09.599Z,8.80
2022-09-18T00:36:21.274Z,13.98
2022-09-18T00:39:23.474Z,15.30
2022-09-18T00:42:35.567Z,15.93
2022-09-18T00:45:41.290Z,12.57
2022-09-18T00:48:54.617Z,15.80
2022-09-18T00:52:00.202Z,17.15
2022-09-18T00:55:14.381Z,20.30
2022-09-18T00:58:19.997Z,12.60
2022-09-18T01:01:23.224Z,17.20
2022-09-18T01:04:33.507Z,16.85
2022-09-18T01:08:38.518Z,13.32
2022-09-18T01:12:01.169Z,19.40
2022-09-18T01:15:17.011Z,11.30
2022-09-18T01:22:16.907Z,18.48
2022-09-18T01:25:53.237Z,12.85
2022-09-18T01:29:22.796Z,17.23
2022-09-18T01:32:54.992Z,11.70
2022-09-18T01:39:36.390Z,11.35
2022-09-18T01:42:43.500Z,15.20
2022-09-18T01:45:51.003Z,13.57
2022-09-18T01:49:33.925Z,12.98
2022-09-18T01:53:06.017Z,14.13
2022-09-18T01:56:31.603Z,15.02
2022-09-18T01:59:59.379Z,17.35
2022-09-18T02:03:13.858Z,15.15
2022-09-18T02:06:32.917Z,16.70
2022-09-18T02:09:54.054Z,10.77
2022-09-18T02:13:01.310Z,11.73
2022-09-18T02:16:17.288Z,14.82
2022-09-18T02:19:41.215Z,16.75
2022-09-18T02:22:46.015Z,12.98
2022-09-18T02:29:16.964Z,11.02
2022-09-18T02:32:19.412Z,12.77
2022-09-18T02:35:31.762Z,13.85
2022-09-18T02:38:56.930Z,12.73
2022-09-18T02:42:24.859Z,11.00
2022-09-18T02:45:43.933Z,10.90
2022-09-18T02:49:04.346Z,12.85
2022-09-18T02:52:30.440Z,12.32
2022-09-18T02:55:40.151Z,14.80
2022-09-18T02:58:54.694Z,10.30
2022-09-18T03:01:58.698Z,15.70
2022-09-18T03:05:01.985Z,18.65
2022-09-18T03:08:05.836Z,12.07
2022-09-18T03:11:13.337Z,16.90
2022-09-18T03:14:15.777Z,16.15
2022-09-18T03:17:26.775Z,12.90
2022-09-18T03:20:29.933Z,14.25
2022-09-18T03:23:33.662Z,14.63
2022-09-18T03:26:39.918Z,15.90
2022-09-18T03:29:46.550Z,13.80
2022-09-18T03:32:50.937Z,14.27
2022-09-18T03:35:55.857Z,11.48
2022-09-18T03:39:01.327Z,16.65
2022-09-18T03:42:10.795Z,14.13
2022-09-18T03:45:17.955Z,18.20
2022-09-18T03:48:24.796Z,12.93
2022-09-18T03:51:27.992Z,11.63
2022-09-18T03:54:30.017Z,11.63
2022-09-18T03:57:32.275Z,11.43
2022-09-18T04:00:41.808Z,14.32
2022-09-18T04:03:43.893Z,14.88
2022-09-18T04:06:46.245Z,9.90
2022-09-18T04:09:49.411Z,13.25
2022-09-18T04:12:51.128Z,16.80
2022-09-18T04:15:52.939Z,16.73
2022-09-18T04:18:54.682Z,16.33
2022-09-18T04:21:56.508Z,16.50
2022-09-18T04:24:58.461Z,10.88
2022-09-18T04:28:00.455Z,17.77
2022-09-18T04:31:02.521Z,14.52
2022-09-18T04:34:04.475Z,12.43
2022-09-18T04:37:10.090Z,14.15
2022-09-18T04:40:12.459Z,11.15
2022-09-18T04:43:14.370Z,11.50
2022-09-18T04:46:16.249Z,17.80
2022-09-18T04:49:18.840Z,19.98
2022-09-18T04:52:20.740Z,15.32
2022-09-18T04:55:22.405Z,15.68
2022-09-18T04:58:24.089Z,17.88
2022-09-18T05:01:25.859Z,15.63
2022-09-18T05:04:27.605Z,17.75
2022-09-18T05:07:31.413Z,23.52
2022-09-18T05:10:33.470Z,15.77
2022-09-18T05:13:35.119Z,13.80
2022-09-18T05:16:36.937Z,17.08
2022-09-18T05:19:38.713Z,15.18
2022-09-18T05:22:47.572Z,17.38
2022-09-18T05:25:49.230Z,16.15
2022-09-18T05:28:51.072Z,12.63
2022-09-18T05:31:52.674Z,13.45
2022-09-18T05:34:54.337Z,13.88
2022-09-18T05:37:56.759Z,16.13
2022-09-18T05:41:02.371Z,19.92
2022-09-18T05:44:05.055Z,15.98
2022-09-18T05:47:06.710Z,18.98
2022-09-18T05:50:09.805Z,16.63
2022-09-18T05:53:13.693Z,19.80
2022-09-18T05:56:16.423Z,17.92
2022-09-18T05:59:18.040Z,19.95
2022-09-18T06:02:19.968Z,20.17
2022-09-18T06:05:22.185Z,16.42
2022-09-18T06:08:24.265Z,12.52
2022-09-18T06:11:25.897Z,11.55
2022-09-18T06:14:27.470Z,12.52
2022-09-18T06:17:29.060Z,12.27
2022-09-18T06:20:30.814Z,14.20
2022-09-18T06:23:32.660Z,15.88
2022-09-18T06:26:34.334Z,10.45
2022-09-18T06:29:35.935Z,13.85
2022-09-18T06:32:37.546Z,10.77
2022-09-18T06:35:39.979Z,11.57
2022-09-18T06:38:41.923Z,12.68
2022-09-18T06:41:43.489Z,11.13
2022-09-18T06:44:45.077Z,10.40
2022-09-18T06:47:46.685Z,10.77
2022-09-18T06:50:55.005Z,18.35
2022-09-18T06:53:56.736Z,13.18
2022-09-18T06:56:58.333Z,15.55
2022-09-18T06:59:59.949Z,12.77
2022-09-18T07:03:03.510Z,19.90
2022-09-18T07:06:05.329Z,14.10
2022-09-18T07:09:06.891Z,7.95
2022-09-18T07:12:08.621Z,10.30
2022-09-18T07:15:10.417Z,13.40
2022-09-18T07:18:12.201Z,14.07
2022-09-18T07:21:13.842Z,10.25
2022-09-18T07:24:15.497Z,11.30
2022-09-18T07:27:17.153Z,8.75
2022-09-18T07:30:18.784Z,11.05
2022-09-18T07:33:20.963Z,8.55
2022-09-18T07:36:22.544Z,8.43
2022-09-18T07:39:24.231Z,12.18
2022-09-18T07:42:30.538Z,9.10
2022-09-18T07:45:32.812Z,5.95
2022-09-18T07:48:35.647Z,4.70
2022-09-18T07:51:37.192Z,7.95
2022-09-18T07:54:38.872Z,6.38
2022-09-18T07:57:40.443Z,10.38
2022-09-18T08:00:42.033Z,7.75
2022-09-18T08:03:43.604Z,5.80
2022-09-18T08:06:46.693Z,8.70
2022-09-18T08:09:48.387Z,6.60
2022-09-18T08:12:53.846Z,6.32
2022-09-18T08:15:55.658Z,7.38
2022-09-18T08:18:57.423Z,6.38
2022-09-18T08:21:59.095Z,7.38
2022-09-18T08:25:00.710Z,5.43
2022-09-18T08:28:03.580Z,9.55
2022-09-18T08:31:05.450Z,12.45
2022-09-18T08:34:07.152Z,10.20
2022-09-18T08:37:08.830Z,8.95
2022-09-18T08:40:13.625Z,10.77
2022-09-18T08:43:40.000Z,18.92
2022-09-18T08:47:04.616Z,13.52
2022-09-18T08:50:18.881Z,6.28
2022-09-18T08:53:30.388Z,10.43
2022-09-18T08:56:33.778Z,7.07
2022-09-18T08:59:42.357Z,12.13
2022-09-18T09:02:52.010Z,9.68
2022-09-18T09:06:01.670Z,11.00
2022-09-18T09:09:37.429Z,10.45
2022-09-18T09:12:57.541Z,10.43
2022-09-18T09:16:08.536Z,9.55
2022-09-18T09:19:20.062Z,11.07
2022-09-18T09:22:43.990Z,8.10
2022-09-18T09:25:48.528Z,14.88
2022-09-18T09:28:59.117Z,8.18
2022-09-18T09:32:20.648Z,9.75
2022-09-18T09:35:32.216Z,8.73
2022-09-18T09:39:08.755Z,5.95
2022-09-18T09:42:34.508Z,8.25
2022-09-18T09:45:46.117Z,16.42
2022-09-18T09:49:27.258Z,12.40
2022-09-18T09:52:31.613Z,9.68
2022-09-18T09:55:48.343Z,8.15
2022-09-18T09:59:19.694Z,13.93
2022-09-18T10:02:32.539Z,15.07
2022-09-18T10:06:08.038Z,10.98
2022-09-18T10:09:20.742Z,10.55
2022-09-18T10:12:46.296Z,10.07
2022-09-18T10:15:50.545Z,15.45
2022-09-18T10:18:55.186Z,32.38
2022-09-18T10:22:00.893Z,16.00
2022-09-18T10:25:17.440Z,7.22
2022-09-18T10:28:21.705Z,1.55
2022-09-18T10:31:25.320Z,11.23
2022-09-18T10:34:34.202Z,7.88
2022-09-18T10:37:35.810Z,3.83
2022-09-18T10:40:43.425Z,6.53
2022-09-18T10:44:23.633Z,7.25
2022-09-18T10:47:33.985Z,7.28
2022-09-18T10:50:37.435Z,9.63
2022-09-18T10:53:39.116Z,8.27
2022-09-18T10:56:40.811Z,13.05
2022-09-18T10:59:42.435Z,8.10
2022-09-18T11:03:13.457Z,10.32
2022-09-18T11:06:26.664Z,5.35
2022-09-18T11:09:46.541Z,5.03
2022-09-18T11:16:25.936Z,6.80
2022-09-18T11:20:49.721Z,11.05
2022-09-18T11:24:16.573Z,12.48
2022-09-18T11:32:34.993Z,10.85
2022-09-18T11:36:10.942Z,11.68
2022-09-18T11:39:44.703Z,12.35
2022-09-18T11:42:56.356Z,12.45
2022-09-18T11:46:33.560Z,12.10
2022-09-18T11:53:51.995Z,12.10
2022-09-18T11:56:59.807Z,14.32
2022-09-18T12:00:13.691Z,10.98
2022-09-18T12:03:27.886Z,8.18
2022-09-18T12:06:50.463Z,8.93
2022-09-18T12:09:57.288Z,10.48
2022-09-18T12:17:27.143Z,16.00
2022-09-18T12:24:43.809Z,11.35
2022-09-18T12:32:26.606Z,6.50
2022-09-18T12:36:01.414Z,11.07
2022-09-18T12:39:52.291Z,9.95
2022-09-18T12:43:23.379Z,11.30
2022-09-18T12:47:05.104Z,5.53
2022-09-18T12:50:48.226Z,7.53
2022-09-18T12:54:44.211Z,7.93
2022-09-18T13:15:05.289Z,9.18
2022-09-18T13:18:20.943Z,12.52
2022-09-18T13:22:01.785Z,11.82
2022-09-18T13:28:46.782Z,13.02
2022-09-18T13:32:01.644Z,7.90
2022-09-18T13:35:14.899Z,12.93
2022-09-18T13:38:22.622Z,12.90
2022-09-18T13:41:24.872Z,15.20
2022-09-18T13:44:38.140Z,6.35
2022-09-18T13:48:06.653Z,11.40
2022-09-18T13:51:21.999Z,9.20
2022-09-18T13:54:28.855Z,11.98
2022-09-18T13:57:32.028Z,12.68
2022-09-18T14:00:34.087Z,12.18
2022-09-18T14:04:00.555Z,10.13
2022-09-18T14:07:24.573Z,7.55
2022-09-18T14:10:32.632Z,9.60
2022-09-18T14:13:50.440Z,2.53
2022-09-18T14:16:58.020Z,2.33
2022-09-18T14:20:28.117Z,9.10
2022-09-18T14:24:04.582Z,3.25
2022-09-18T14:27:34.363Z,3.60
2022-09-18T14:30:36.508Z,6.03
2022-09-18T14:33:38.448Z,7.63
2022-09-18T14:37:06.007Z,5.55
2022-09-18T14:40:31.012Z,10.27
2022-09-18T14:43:42.272Z,8.25
2022-09-18T14:47:26.604Z,8.95
2022-09-18T14:50:37.684Z,11.13
2022-09-18T14:53:43.827Z,5.43
2022-09-18T14:56:48.111Z,9.60
2022-09-18T15:00:00.210Z,5.20
2022-09-18T15:03:29.314Z,5.68
2022-09-18T15:06:57.025Z,8.93
2022-09-18T15:10:01.269Z,6.90
2022-09-18T15:13:08.462Z,9.05
2022-09-18T15:16:20.312Z,7.07
2022-09-18T15:19:22.230Z,12.82
2022-09-18T15:22:24.181Z,8.70
2022-09-18T15:25:35.925Z,8.43
2022-09-18T15:28:41.547Z,5.68
2022-09-18T15:31:48.522Z,10.95
2022-09-18T15:34:51.613Z,8.50
2022-09-18T15:38:03.292Z,7.70
2022-09-18T15:41:23.305Z,5.03
2022-09-18T15:44:51.436Z,13.07
2022-09-18T15:47:53.847Z,5.85
2022-09-18T15:51:13.570Z,7.65
2022-09-18T15:54:18.203Z,8.73
2022-09-18T15:57:19.964Z,7.05
2022-09-18T16:00:27.365Z,11.00
2022-09-18T16:03:31.681Z,9.02
2022-09-18T16:06:41.678Z,5.18
2022-09-18T16:09:47.168Z,8.40
2022-09-18T16:12:50.882Z,7.15
2022-09-18T16:16:23.461Z,6.13
2022-09-18T16:19:25.447Z,8.13
2022-09-18T16:23:14.142Z,9.10
2022-09-18T16:26:39.437Z,7.43
2022-09-18T16:29:43.299Z,4.20
2022-09-18T16:32:50.735Z,8.32
2022-09-18T16:36:22.340Z,7.13
2022-09-18T16:39:26.925Z,4.95
2022-09-18T16:42:28.784Z,5.03
2022-09-18T16:45:35.745Z,4.10
2022-09-18T16:56:32.315Z,5.90
2022-09-18T17:02:55.998Z,5.38
2022-09-18T17:06:19.270Z,4.95
2022-09-18T17:09:29.596Z,3.60
2022-09-18T17:12:36.966Z,10.10
2022-09-18T17:15:50.978Z,9.13
2022-09-18T17:18:56.205Z,5.47
2022-09-18T17:22:03.306Z,14.82
2022-09-18T17:29:47.767Z,8.40
2022-09-18T17:32:49.414Z,12.13
2022-09-18T17:35:51.495Z,6.47
2022-09-18T17:38:53.111Z,11.13
2022-09-18T17:41:55.651Z,8.85
2022-09-18T17:44:57.216Z,10.85
2022-09-18T17:47:58.999Z,9.68
2022-09-18T17:51:04.216Z,5.82
2022-09-18T17:54:05.861Z,4.55
2022-09-18T17:57:11.473Z,8.70
2022-09-18T18:00:15.203Z,7.95
2022-09-18T18:03:16.744Z,8.20
2022-09-18T18:06:21.650Z,8.77
2022-09-18T18:09:23.549Z,11.80
2022-09-18T18:12:25.070Z,9.38
2022-09-18T18:15:26.668Z,7.07
2022-09-18T18:18:28.463Z,6.30
2022-09-18T18:21:32.010Z,7.47
2022-09-18T18:24:33.555Z,11.40
2022-09-18T18:27:35.726Z,7.35
2022-09-18T18:30:38.033Z,14.05
2022-09-18T18:33:45.161Z,8.75
2022-09-18T18:36:47.590Z,7.80
2022-09-18T18:39:49.145Z,7.57
2022-09-18T18:42:50.665Z,10.68
2022-09-18T18:45:56.458Z,9.50
2022-09-18T18:49:02.418Z,8.93
2022-09-18T18:52:05.033Z,5.85
2022-09-18T18:55:06.785Z,9.02
2022-09-18T18:58:08.779Z,9.00
2022-09-18T19:01:18.096Z,9.65
2022-09-18T19:04:19.813Z,8.40
2022-09-18T19:07:21.374Z,19.15
2022-09-18T19:10:24.323Z,16.48
2022-09-18T19:13:27.423Z,15.30
2022-09-18T19:16:32.271Z,16.88
2022-09-18T19:19:33.917Z,14.27
2022-09-18T19:22:35.461Z,21.63
2022-09-18T19:25:37.076Z,13.02
2022-09-18T19:28:38.671Z,14.52
2022-09-18T19:31:43.556Z,9.90
2022-09-18T19:34:45.192Z,8.95
2022-09-18T19:37:46.710Z,11.50
2022-09-18T19:40:51.251Z,9.15
2022-09-18T19:43:53.967Z,8.35
2022-09-18T19:46:57.473Z,13.80
2022-09-18T19:50:01.546Z,8.07
2022-09-18T19:53:03.459Z,11.13
2022-09-18T19:56:22.677Z,11.13
2022-09-18T19:59:29.406Z,13.00
2022-09-18T20:02:30.957Z,11.50
2022-09-18T20:05:33.491Z,10.05
2022-09-18T20:08:35.043Z,10.07
2022-09-18T20:11:36.699Z,14.85
2022-09-18T20:14:38.236Z,7.35
2022-09-18T20:17:39.845Z,13.90
2022-09-18T20:20:41.393Z,20.58
2022-09-18T20:23:43.085Z,23.50
2022-09-18T20:26:44.931Z,28.05
2022-09-18T20:29:46.567Z,16.63
2022-09-18T20:32:48.855Z,16.52
2022-09-18T20:36:00.337Z,12.10
2022-09-18T20:39:03.621Z,12.07
2022-09-18T20:42:05.703Z,12.48
2022-09-18T20:45:08.144Z,15.43
2022-09-18T20:48:09.765Z,10.88
2022-09-18T20:51:13.534Z,10.93
2022-09-18T20:54:15.575Z,10.82
2022-09-18T20:57:17.133Z,13.45
2022-09-18T21:00:18.726Z,12.40
2022-09-18T21:03:21.041Z,14.50
2022-09-18T21:06:27.857Z,14.48
2022-09-18T21:09:30.751Z,18.17
2022-09-18T21:12:32.507Z,9.57
2022-09-18T21:15:34.842Z,14.73
2022-09-18T21:18:36.989Z,9.10
2022-09-18T21:21:39.194Z,16.95
2022-09-18T21:24:40.749Z,19.25
2022-09-18T21:27:43.198Z,13.95
2022-09-18T21:30:44.848Z,11.38
2022-09-18T21:33:47.179Z,11.38
2022-09-18T21:36:49.064Z,14.73
2022-09-18T21:39:50.772Z,9.88
2022-09-18T21:42:54.980Z,7.88
2022-09-18T21:45:57.289Z,15.07
2022-09-18T21:48:58.820Z,7.85
2022-09-18T21:52:03.372Z,10.73
2022-09-18T21:55:05.312Z,12.40
2022-09-18T21:58:06.908Z,17.00
2022-09-18T22:01:18.145Z,17.25
2022-09-18T22:04:22.408Z,17.67
2022-09-18T22:07:24.797Z,21.13
2022-09-18T22:10:26.352Z,14.70
2022-09-18T22:13:32.617Z,17.25
2022-09-18T22:16:34.373Z,16.83
2022-09-18T22:19:40.523Z,20.17
2022-09-18T22:22:43.550Z,11.50
2022-09-18T22:25:45.239Z,13.50
2022-09-18T22:28:52.855Z,17.08
2022-09-18T22:31:55.035Z,11.32
2022-09-18T22:34:56.988Z,15.55
2022-09-18T22:37:58.777Z,18.13
2022-09-18T22:41:05.650Z,15.82
2022-09-18T22:44:07.945Z,23.40
2022-09-18T22:47:09.686Z,19.65
2022-09-18T22:50:11.247Z,13.23
2022-09-18T22:53:13.895Z,14.25
2022-09-18T22:56:16.784Z,19.95
2022-09-18T22:59:21.155Z,17.35
2022-09-18T23:02:23.218Z,21.35
2022-09-18T23:05:24.855Z,18.58
2022-09-18T23:08:26.500Z,22.42
2022-09-18T23:11:31.175Z,23.35
2022-09-18T23:14:32.979Z,16.90
2022-09-18T23:17:34.885Z,17.85
2022-09-18T23:20:36.432Z,27.70
2022-09-18T23:23:39.752Z,20.75
2022-09-18T23:26:44.023Z,26.23
2022-09-18T23:29:45.712Z,32.08
2022-09-18T23:32:48.543Z,24.40
2022-09-18T23:35:50.067Z,15.73
2022-09-18T23:38:57.824Z,23.65
2022-09-18T23:42:01.449Z,26.02
2022-09-18T23:45:03.415Z,24.92
2022-09-18T23:48:04.959Z,30.00
2022-09-18T23:51:06.850Z,20.70
2022-09-18T23:54:19.471Z,25.50
2022-09-18T23:57:22.470Z,20.95
